createdAt,value
2022-08-21T00:00:46.374Z,75.35
2022-08-21T00:03:15.479Z,75.12
2022-08-21T00:05:47.091Z,75.51
2022-08-21T00:08:15.808Z,75.32
2022-08-21T00:10:45.252Z,75.34
2022-08-21T00:13:18.764Z,75.03
2022-08-21T00:15:48.756Z,75.13
2022-08-21T00:18:18.474Z,74.85
2022-08-21T00:20:47.751Z,75.32
2022-08-21T00:23:16.080Z,74.99
2022-08-21T00:25:45.170Z,75.46
2022-08-21T00:28:15.499Z,75.44
2022-08-21T00:30:44.776Z,75.40
2022-08-21T00:33:14.068Z,75.25
2022-08-21T00:35:44.807Z,75.85
2022-08-21T00:38:13.753Z,75.91
2022-08-21T00:40:48.264Z,75.86
2022-08-21T00:43:22.551Z,75.94
2022-08-21T00:45:50.862Z,76.16
2022-08-21T00:48:19.407Z,76.31
2022-08-21T00:50:55.438Z,76.34
2022-08-21T00:53:25.379Z,76.91
2022-08-21T00:55:54.362Z,76.96
2022-08-21T00:58:28.754Z,77.15
2022-08-21T01:00:59.032Z,77.04
2022-08-21T01:03:27.690Z,77.17
2022-08-21T01:05:56.649Z,77.26
2022-08-21T01:08:26.064Z,77.16
2022-08-21T01:10:55.961Z,77.42
2022-08-21T01:13:26.462Z,77.79
2022-08-21T01:16:00.275Z,77.73
2022-08-21T01:18:29.465Z,77.75
2022-08-21T01:21:10.235Z,77.79
2022-08-21T01:23:45.985Z,77.86
2022-08-21T01:26:18.365Z,78.22
2022-08-21T01:28:52.274Z,77.87
2022-08-21T01:31:26.178Z,78.16
2022-08-21T01:33:55.711Z,78.13
2022-08-21T01:36:26.261Z,78.11
2022-08-21T01:38:54.728Z,78.48
2022-08-21T01:41:22.977Z,78.36
2022-08-21T01:43:51.545Z,78.20
2022-08-21T01:46:19.748Z,78.36
2022-08-21T01:48:47.914Z,78.34
2022-08-21T01:51:16.047Z,78.38
2022-08-21T01:53:45.841Z,78.40
2022-08-21T01:56:16.695Z,78.38
2022-08-21T01:58:47.921Z,78.14
2022-08-21T02:01:17.169Z,78.33
2022-08-21T02:03:45.454Z,77.97
2022-08-21T02:06:18.777Z,78.35
2022-08-21T02:08:51.436Z,78.27
2022-08-21T02:11:19.788Z,78.02
2022-08-21T02:13:48.026Z,78.72
2022-08-21T02:16:19.200Z,78.20
2022-08-21T02:18:48.310Z,78.44
2022-08-21T02:21:16.523Z,78.96
2022-08-21T02:23:44.897Z,78.53
2022-08-21T02:26:14.982Z,79.02
2022-08-21T02:28:43.673Z,78.96
2022-08-21T02:31:12.530Z,79.03
2022-08-21T02:33:41.915Z,79.49
2022-08-21T02:36:11.479Z,79.45
2022-08-21T02:38:41.974Z,79.24
2022-08-21T02:41:15.199Z,79.99
2022-08-21T02:43:44.067Z,80.16
2022-08-21T02:46:15.401Z,80.35
2022-08-21T02:48:43.922Z,80.25
2022-08-21T02:51:15.991Z,80.45
2022-08-21T02:53:44.768Z,80.53
2022-08-21T02:56:18.791Z,80.61
2022-08-21T02:58:50.222Z,80.50
2022-08-21T03:01:18.438Z,80.46
2022-08-21T03:03:50.926Z,80.67
2022-08-21T03:06:22.543Z,80.48
2022-08-21T03:08:51.833Z,80.92
2022-08-21T03:11:21.775Z,80.85
2022-08-21T03:13:49.906Z,81.24
2022-08-21T03:16:19.722Z,81.42
2022-08-21T03:18:48.024Z,81.28
2022-08-21T03:21:16.989Z,81.52
2022-08-21T03:23:45.020Z,81.61
2022-08-21T03:26:13.426Z,81.45
2022-08-21T03:28:43.443Z,81.14
2022-08-21T03:31:11.494Z,82.02
2022-08-21T03:33:39.632Z,81.35
2022-08-21T03:36:10.228Z,81.91
2022-08-21T03:38:39.950Z,81.79
2022-08-21T03:41:09.455Z,81.84
2022-08-21T03:43:39.575Z,82.13
2022-08-21T03:46:09.328Z,82.03
2022-08-21T03:48:40.449Z,81.64
2022-08-21T03:51:09.099Z,81.72
2022-08-21T03:53:37.332Z,81.84
2022-08-21T03:56:06.669Z,81.64
2022-08-21T03:58:34.883Z,81.87
2022-08-21T04:01:05.503Z,82.02
2022-08-21T04:03:37.838Z,82.35
2022-08-21T04:06:07.161Z,82.60
2022-08-21T04:08:35.993Z,82.55
2022-08-21T04:11:04.477Z,82.62
2022-08-21T04:13:32.749Z,82.02
2022-08-21T04:16:00.883Z,82.43
2022-08-21T04:18:29.162Z,82.44
2022-08-21T04:21:03.209Z,82.49
2022-08-21T04:23:33.104Z,82.18
2022-08-21T04:26:01.358Z,82.09
2022-08-21T04:28:31.135Z,82.14
2022-08-21T04:31:00.125Z,82.52
2022-08-21T04:33:28.343Z,82.58
2022-08-21T04:35:57.945Z,82.27
2022-08-21T04:38:27.143Z,82.04
2022-08-21T04:41:05.721Z,82.22
2022-08-21T04:43:34.240Z,82.35
2022-08-21T04:46:02.862Z,82.25
2022-08-21T04:48:31.112Z,82.10
2022-08-21T04:51:07.737Z,82.53
2022-08-21T04:53:40.835Z,82.21
2022-08-21T04:56:13.757Z,82.13
2022-08-21T04:58:42.748Z,82.08
2022-08-21T05:01:21.570Z,81.79
2022-08-21T05:03:51.837Z,81.77
2022-08-21T05:06:22.206Z,81.77
2022-08-21T05:09:01.486Z,81.74
2022-08-21T05:11:31.678Z,81.92
2022-08-21T05:14:00.220Z,81.66
2022-08-21T05:16:36.708Z,81.47
2022-08-21T05:19:06.450Z,81.54
2022-08-21T05:21:36.187Z,81.19
2022-08-21T05:24:05.178Z,81.22
2022-08-21T05:26:33.663Z,81.20
2022-08-21T05:29:13.587Z,80.78
2022-08-21T05:31:41.742Z,80.96
2022-08-21T05:34:10.075Z,80.67
2022-08-21T05:36:39.761Z,80.40
2022-08-21T05:39:07.911Z,80.31
2022-08-21T05:41:36.094Z,80.17
2022-08-21T05:44:04.903Z,79.92
2022-08-21T05:46:38.585Z,79.68
2022-08-21T05:49:06.724Z,79.63
2022-08-21T05:51:35.000Z,79.59
2022-08-21T05:54:05.380Z,79.13
2022-08-21T05:56:33.778Z,79.07
2022-08-21T05:59:01.970Z,78.91
2022-08-21T06:01:31.809Z,78.68
2022-08-21T06:04:00.172Z,78.56
2022-08-21T06:06:29.637Z,78.31
2022-08-21T06:08:57.685Z,78.10
2022-08-21T06:11:29.148Z,77.90
2022-08-21T06:14:01.009Z,77.79
2022-08-21T06:16:30.566Z,77.71
2022-08-21T06:19:02.637Z,77.45
2022-08-21T06:21:31.330Z,76.89
2022-08-21T06:23:59.547Z,76.76
2022-08-21T06:26:30.148Z,76.69
2022-08-21T06:28:58.343Z,76.44
2022-08-21T06:31:29.678Z,76.26
2022-08-21T06:33:58.310Z,76.05
2022-08-21T06:36:26.469Z,75.94
2022-08-21T06:38:54.559Z,75.77
2022-08-21T06:41:26.464Z,75.67
2022-08-21T06:43:58.238Z,75.38
2022-08-21T06:46:28.323Z,75.50
2022-08-21T06:48:57.007Z,75.00
2022-08-21T06:51:26.817Z,75.17
2022-08-21T06:53:55.373Z,74.91
2022-08-21T06:56:23.559Z,74.83
2022-08-21T06:58:51.826Z,74.64
2022-08-21T07:01:22.172Z,74.34
2022-08-21T07:03:53.859Z,74.31
2022-08-21T07:06:21.955Z,74.45
2022-08-21T07:08:50.104Z,74.06
2022-08-21T07:11:22.257Z,73.81
2022-08-21T07:13:53.512Z,73.39
2022-08-21T07:16:23.974Z,73.29
2022-08-21T07:18:52.120Z,72.91
2022-08-21T07:21:25.230Z,72.76
2022-08-21T07:23:54.657Z,72.07
2022-08-21T07:26:24.906Z,71.50
2022-08-21T07:28:53.677Z,71.10
2022-08-21T07:31:26.273Z,70.74
2022-08-21T07:33:56.461Z,70.19
2022-08-21T07:36:24.990Z,69.75
2022-08-21T07:38:53.215Z,69.39
2022-08-21T07:41:25.616Z,68.63
2022-08-21T07:43:53.823Z,68.24
2022-08-21T07:46:23.296Z,68.05
2022-08-21T07:48:51.429Z,67.45
2022-08-21T07:51:26.456Z,67.26
2022-08-21T07:53:57.274Z,67.13
2022-08-21T07:56:25.544Z,66.72
2022-08-21T07:58:53.792Z,66.11
2022-08-21T08:01:24.609Z,65.95
2022-08-21T08:03:53.070Z,65.80
2022-08-21T08:06:21.258Z,65.48
2022-08-21T08:08:49.631Z,64.78
2022-08-21T08:11:18.461Z,64.05
2022-08-21T08:13:49.710Z,63.59
2022-08-21T08:16:18.324Z,63.27
2022-08-21T08:18:48.363Z,62.90
2022-08-21T08:21:17.082Z,62.67
2022-08-21T08:23:46.056Z,62.51
2022-08-21T08:26:14.637Z,62.21
2022-08-21T08:28:42.752Z,61.80
2022-08-21T08:31:11.015Z,61.23
2022-08-21T08:33:39.667Z,60.71
2022-08-21T08:36:16.741Z,59.90
2022-08-21T08:38:45.072Z,59.63
2022-08-21T08:41:17.486Z,58.99
2022-08-21T08:43:53.913Z,58.16
2022-08-21T08:46:31.271Z,57.80
2022-08-21T08:49:05.181Z,57.96
2022-08-21T08:51:45.564Z,56.99
2022-08-21T08:54:20.165Z,56.78
2022-08-21T08:56:48.732Z,56.56
2022-08-21T08:59:21.050Z,56.31
2022-08-21T09:01:49.559Z,55.96
2022-08-21T09:04:24.859Z,55.76
2022-08-21T09:07:08.666Z,54.87
2022-08-21T09:09:54.379Z,54.60
2022-08-21T09:12:35.684Z,53.99
2022-08-21T09:15:14.937Z,53.58
2022-08-21T09:18:07.952Z,53.47
2022-08-21T09:20:43.459Z,53.08
2022-08-21T09:23:27.392Z,53.05
2022-08-21T09:26:03.532Z,52.05
2022-08-21T09:28:35.699Z,51.82
2022-08-21T09:31:08.418Z,51.48
2022-08-21T09:33:36.978Z,51.12
2022-08-21T09:36:06.350Z,50.70
2022-08-21T09:38:38.879Z,50.06
2022-08-21T09:41:10.858Z,49.77
2022-08-21T09:43:40.522Z,49.92
2022-08-21T09:46:12.668Z,49.71
2022-08-21T09:48:47.599Z,49.52
2022-08-21T09:51:20.175Z,49.42
2022-08-21T09:53:55.103Z,48.44
2022-08-21T09:56:51.298Z,48.88
2022-08-21T09:59:27.072Z,48.39
2022-08-21T10:01:56.730Z,48.07
2022-08-21T10:04:30.301Z,47.74
2022-08-21T10:07:09.777Z,47.97
2022-08-21T10:09:39.927Z,47.24
2022-08-21T10:12:19.149Z,46.88
2022-08-21T10:14:57.069Z,47.03
2022-08-21T10:17:33.698Z,46.35
2022-08-21T10:20:08.037Z,46.23
2022-08-21T10:22:47.389Z,46.65
2022-08-21T10:25:27.554Z,46.98
2022-08-21T10:28:13.521Z,46.12
2022-08-21T10:30:58.710Z,45.94
2022-08-21T10:33:37.473Z,44.93
2022-08-21T10:36:15.741Z,44.94
2022-08-21T10:39:25.243Z,44.83
2022-08-21T10:42:21.848Z,45.58
2022-08-21T10:45:13.436Z,45.51
2022-08-21T10:47:56.050Z,45.21
2022-08-21T10:50:33.682Z,44.90
2022-08-21T10:53:31.829Z,44.43
2022-08-21T10:56:07.294Z,44.28
2022-08-21T10:58:44.632Z,43.93
2022-08-21T11:01:20.378Z,43.13
2022-08-21T11:03:54.301Z,42.82
2022-08-21T11:06:27.588Z,42.48
2022-08-21T11:09:02.037Z,42.18
2022-08-21T11:11:38.049Z,41.94
2022-08-21T11:14:32.092Z,42.09
2022-08-21T11:17:12.166Z,41.93
2022-08-21T11:20:06.638Z,42.05
2022-08-21T11:22:54.549Z,41.48
2022-08-21T11:25:33.763Z,40.84
2022-08-21T11:28:14.603Z,40.29
2022-08-21T11:30:57.029Z,40.41
2022-08-21T11:33:45.182Z,40.74
2022-08-21T11:36:25.095Z,41.28
2022-08-21T11:39:00.787Z,41.59
2022-08-21T11:41:34.402Z,41.80
2022-08-21T11:44:14.060Z,42.42
2022-08-21T11:46:52.020Z,42.99
2022-08-21T11:49:38.377Z,43.28
2022-08-21T11:52:15.847Z,43.58
2022-08-21T11:54:49.085Z,43.67
2022-08-21T11:57:24.072Z,44.46
2022-08-21T12:00:01.809Z,44.83
2022-08-21T12:02:37.367Z,45.34
2022-08-21T12:05:10.542Z,46.32
2022-08-21T12:07:42.043Z,46.58
2022-08-21T12:10:14.264Z,47.25
2022-08-21T12:12:46.205Z,48.25
2022-08-21T12:15:28.387Z,48.73
2022-08-21T12:18:05.997Z,49.99
2022-08-21T12:20:50.841Z,51.15
2022-08-21T12:23:31.131Z,52.48
2022-08-21T12:26:27.497Z,52.35
2022-08-21T12:29:17.098Z,52.57
2022-08-21T12:31:56.414Z,50.70
2022-08-21T12:34:38.580Z,48.97
2022-08-21T12:37:17.488Z,46.27
2022-08-21T12:39:49.118Z,43.43
2022-08-21T12:42:21.354Z,42.19
2022-08-21T12:44:55.195Z,41.12
2022-08-21T12:47:31.974Z,39.23
2022-08-21T12:50:07.992Z,38.99
2022-08-21T12:52:42.650Z,37.92
2022-08-21T12:55:14.584Z,37.65
2022-08-21T12:57:43.830Z,36.80
2022-08-21T13:00:21.992Z,37.54
2022-08-21T13:02:52.981Z,36.87
2022-08-21T13:05:36.552Z,36.47
2022-08-21T13:08:08.915Z,36.70
2022-08-21T13:10:38.405Z,36.96
2022-08-21T13:13:13.217Z,36.90
2022-08-21T13:15:47.657Z,35.90
2022-08-21T13:18:25.413Z,36.50
2022-08-21T13:21:05.273Z,37.18
2022-08-21T13:23:49.580Z,36.92
2022-08-21T13:26:21.200Z,36.58
2022-08-21T13:28:51.319Z,36.74
2022-08-21T13:31:24.292Z,37.13
2022-08-21T13:33:53.242Z,37.67
2022-08-21T13:36:30.162Z,38.00
2022-08-21T13:38:58.701Z,38.23
2022-08-21T13:41:30.269Z,38.74
2022-08-21T13:44:02.449Z,39.40
2022-08-21T13:46:38.189Z,40.08
2022-08-21T13:49:08.489Z,40.74
2022-08-21T13:51:39.086Z,41.03
2022-08-21T13:54:19.269Z,41.88
2022-08-21T13:56:48.645Z,41.34
2022-08-21T13:59:29.286Z,41.98
2022-08-21T14:02:01.935Z,42.21
2022-08-21T14:04:37.785Z,42.91
2022-08-21T14:07:19.617Z,42.94
2022-08-21T14:09:48.956Z,42.55
2022-08-21T14:12:25.279Z,42.04
2022-08-21T14:14:55.719Z,42.13
2022-08-21T14:17:33.315Z,41.58
2022-08-21T14:20:02.831Z,41.66
2022-08-21T14:22:44.339Z,41.51
2022-08-21T14:25:15.865Z,41.29
2022-08-21T14:27:50.845Z,41.13
2022-08-21T14:30:23.825Z,40.71
2022-08-21T14:32:53.070Z,40.97
2022-08-21T14:35:23.588Z,40.98
2022-08-21T14:37:55.535Z,40.46
2022-08-21T14:40:25.735Z,40.23
2022-08-21T14:42:54.763Z,40.15
2022-08-21T14:45:31.343Z,39.53
2022-08-21T14:48:00.681Z,38.66
2022-08-21T14:50:28.895Z,39.20
2022-08-21T14:52:58.560Z,39.92
2022-08-21T14:55:28.166Z,39.36
2022-08-21T14:57:59.534Z,39.06
2022-08-21T15:00:35.563Z,38.56
2022-08-21T15:03:05.171Z,37.68
2022-08-21T15:05:34.138Z,35.95
2022-08-21T15:08:05.202Z,34.09
2022-08-21T15:10:41.340Z,32.92
2022-08-21T15:13:21.181Z,31.07
2022-08-21T15:15:53.627Z,30.27
2022-08-21T15:18:22.280Z,30.33
2022-08-21T15:20:50.939Z,29.17
2022-08-21T15:23:21.249Z,29.09
2022-08-21T15:25:51.045Z,29.37
2022-08-21T15:28:21.253Z,28.98
2022-08-21T15:30:53.726Z,30.06
2022-08-21T15:33:22.438Z,32.23
2022-08-21T15:35:50.696Z,33.84
2022-08-21T15:38:20.251Z,35.00
2022-08-21T15:40:52.331Z,35.75
2022-08-21T15:43:29.925Z,37.09
2022-08-21T15:46:00.983Z,37.64
2022-08-21T15:48:31.043Z,38.62
2022-08-21T15:50:59.152Z,39.75
2022-08-21T15:53:28.752Z,40.07
2022-08-21T15:55:57.030Z,40.31
2022-08-21T15:58:25.319Z,40.26
2022-08-21T16:00:53.520Z,40.66
2022-08-21T16:03:22.922Z,40.55
2022-08-21T16:05:53.264Z,41.22
2022-08-21T16:08:22.005Z,41.40
2022-08-21T16:10:52.110Z,41.29
2022-08-21T16:13:27.137Z,42.02
2022-08-21T16:15:55.661Z,42.85
2022-08-21T16:18:26.529Z,43.27
2022-08-21T16:20:54.786Z,43.94
2022-08-21T16:23:23.072Z,44.31
2022-08-21T16:25:52.769Z,44.25
2022-08-21T16:28:22.642Z,44.81
2022-08-21T16:30:52.493Z,44.82
2022-08-21T16:33:28.734Z,44.64
2022-08-21T16:35:57.009Z,44.74
2022-08-21T16:38:25.106Z,45.02
2022-08-21T16:40:55.036Z,45.06
2022-08-21T16:43:26.338Z,45.46
2022-08-21T16:45:55.204Z,45.80
2022-08-21T16:48:24.366Z,46.19
2022-08-21T16:50:52.694Z,46.62
2022-08-21T16:53:20.812Z,46.98
2022-08-21T16:55:50.443Z,47.70
2022-08-21T16:58:26.637Z,47.71
2022-08-21T17:00:55.477Z,48.58
2022-08-21T17:03:30.340Z,48.85
2022-08-21T17:05:58.486Z,49.48
2022-08-21T17:08:26.770Z,49.59
2022-08-21T17:10:55.979Z,50.34
2022-08-21T17:13:27.223Z,50.96
2022-08-21T17:15:55.828Z,51.23
2022-08-21T17:18:26.534Z,50.99
2022-08-21T17:20:55.010Z,51.87
2022-08-21T17:23:23.138Z,51.92
2022-08-21T17:25:55.970Z,52.35
2022-08-21T17:28:30.561Z,52.47
2022-08-21T17:31:02.386Z,52.38
2022-08-21T17:33:42.772Z,52.64
2022-08-21T17:36:11.293Z,53.49
2022-08-21T17:38:39.747Z,53.84
2022-08-21T17:41:08.469Z,54.19
2022-08-21T17:43:39.161Z,54.26
2022-08-21T17:46:07.703Z,53.79
2022-08-21T17:48:35.836Z,53.93
2022-08-21T17:51:04.045Z,53.82
2022-08-21T17:53:32.249Z,54.19
2022-08-21T17:56:00.348Z,53.87
2022-08-21T17:58:28.513Z,53.93
2022-08-21T18:00:58.587Z,54.15
2022-08-21T18:03:26.783Z,54.34
2022-08-21T18:05:56.909Z,54.69
2022-08-21T18:08:25.143Z,54.35
2022-08-21T18:10:53.884Z,54.76
2022-08-21T18:13:28.484Z,54.85
2022-08-21T18:16:01.235Z,54.76
2022-08-21T18:18:34.661Z,54.93
2022-08-21T18:21:02.785Z,55.03
2022-08-21T18:23:44.220Z,55.40
2022-08-21T18:26:16.175Z,55.72
2022-08-21T18:28:45.104Z,55.67
2022-08-21T18:31:15.183Z,56.20
2022-08-21T18:33:57.981Z,56.60
2022-08-21T18:36:27.949Z,56.92
2022-08-21T18:39:13.430Z,56.85
2022-08-21T18:41:48.807Z,57.10
2022-08-21T18:44:19.989Z,57.10
2022-08-21T18:46:56.342Z,57.00
2022-08-21T18:49:24.545Z,57.28
2022-08-21T18:51:52.753Z,57.24
2022-08-21T18:54:21.110Z,57.54
2022-08-21T18:56:51.328Z,57.88
2022-08-21T18:59:30.738Z,57.96
2022-08-21T19:02:00.352Z,58.00
2022-08-21T19:07:20.447Z,58.18
2022-08-21T19:10:07.560Z,58.60
2022-08-21T19:12:39.426Z,58.45
2022-08-21T19:15:11.024Z,58.59
2022-08-21T19:17:41.698Z,59.02
2022-08-21T19:20:25.640Z,58.72
2022-08-21T19:22:56.336Z,58.98
2022-08-21T19:25:33.787Z,59.31
2022-08-21T19:28:11.280Z,59.40
2022-08-21T19:30:45.765Z,60.07
2022-08-21T19:33:23.996Z,60.21
2022-08-21T19:35:52.825Z,60.02
2022-08-21T19:38:21.428Z,60.83
2022-08-21T19:40:49.962Z,61.08
2022-08-21T19:43:23.256Z,61.68
2022-08-21T19:45:54.381Z,62.19
2022-08-21T19:48:24.286Z,63.17
2022-08-21T19:50:53.137Z,63.59
2022-08-21T19:53:21.777Z,63.85
2022-08-21T19:55:50.084Z,64.58
2022-08-21T19:58:35.268Z,64.81
2022-08-21T20:01:11.566Z,65.17
2022-08-21T20:03:54.009Z,65.49
2022-08-21T20:06:25.549Z,65.99
2022-08-21T20:08:55.607Z,66.17
2022-08-21T20:14:22.438Z,67.04
2022-08-21T20:16:52.709Z,67.32
2022-08-21T20:19:23.262Z,66.89
2022-08-21T20:21:51.702Z,67.27
2022-08-21T20:24:19.780Z,67.56
2022-08-21T20:26:49.974Z,67.74
2022-08-21T20:29:23.846Z,67.77
2022-08-21T20:31:54.570Z,67.84
2022-08-21T20:37:13.719Z,68.65
2022-08-21T20:40:01.857Z,68.69
2022-08-21T20:42:30.249Z,68.87
2022-08-21T20:44:58.495Z,69.19
2022-08-21T20:47:26.620Z,68.75
2022-08-21T20:50:05.105Z,69.13
2022-08-21T20:52:36.997Z,69.42
2022-08-21T20:55:13.898Z,69.33
2022-08-21T20:57:50.985Z,69.41
2022-08-21T21:00:22.859Z,69.62
2022-08-21T21:03:01.170Z,69.45
2022-08-21T21:05:39.766Z,69.56
2022-08-21T21:08:16.031Z,69.32
2022-08-21T21:10:50.748Z,69.70
2022-08-21T21:13:27.723Z,70.06
2022-08-21T21:16:01.438Z,70.29
2022-08-21T21:18:36.581Z,70.34
2022-08-21T21:21:20.557Z,70.46
2022-08-21T21:23:56.860Z,70.74
2022-08-21T21:26:32.135Z,71.00
2022-08-21T21:29:13.097Z,71.17
2022-08-21T21:31:42.536Z,70.99
2022-08-21T21:34:17.101Z,71.41
2022-08-21T21:37:01.372Z,71.25
2022-08-21T21:39:36.629Z,71.46
2022-08-21T21:42:13.466Z,71.29
2022-08-21T21:45:00.171Z,71.46
2022-08-21T21:47:45.248Z,71.41
2022-08-21T21:50:34.549Z,71.61
2022-08-21T21:53:24.431Z,71.65
2022-08-21T21:56:08.196Z,71.64
2022-08-21T21:58:55.005Z,71.91
2022-08-21T22:01:34.735Z,71.93
2022-08-21T22:04:10.122Z,72.51
2022-08-21T22:06:51.209Z,72.42
2022-08-21T22:09:42.286Z,72.59
2022-08-21T22:12:29.409Z,72.53
2022-08-21T22:14:58.243Z,72.67
2022-08-21T22:17:36.385Z,72.52
2022-08-21T22:20:25.096Z,72.34
2022-08-21T22:22:57.211Z,72.71
2022-08-21T22:25:31.813Z,72.70
2022-08-21T22:28:06.998Z,72.77
2022-08-21T22:30:45.353Z,72.82
2022-08-21T22:33:20.217Z,72.61
2022-08-21T22:35:51.588Z,72.67
2022-08-21T22:38:33.320Z,72.69
2022-08-21T22:44:07.497Z,72.75
2022-08-21T22:46:50.258Z,72.92
2022-08-21T22:49:31.821Z,73.02
2022-08-21T22:52:11.651Z,73.40
2022-08-21T22:54:45.241Z,73.41
2022-08-21T22:57:28.192Z,73.21
2022-08-21T23:00:00.626Z,73.44
2022-08-21T23:02:38.737Z,73.46
2022-08-21T23:05:19.286Z,73.11
2022-08-21T23:07:50.744Z,73.71
2022-08-21T23:10:29.348Z,73.65
2022-08-21T23:13:09.541Z,73.88
2022-08-21T23:15:49.786Z,74.12
2022-08-21T23:18:29.739Z,74.41
2022-08-21T23:21:10.873Z,74.50
2022-08-21T23:23:59.279Z,74.73
2022-08-21T23:26:34.235Z,74.92
2022-08-21T23:29:24.700Z,75.61
2022-08-21T23:32:04.603Z,75.34
2022-08-21T23:34:44.141Z,75.66
2022-08-21T23:37:51.435Z,75.82
2022-08-21T23:40:51.339Z,75.98
2022-08-21T23:43:43.354Z,76.34
2022-08-21T23:46:35.792Z,76.21
2022-08-21T23:49:22.531Z,76.31
2022-08-21T23:55:10.537Z,76.74
2022-08-21T23:57:54.665Z,76.44
